createdAt,value
2022-09-03T00:00:52.659Z,50.12
2022-09-03T00:03:55.957Z,50.22
2022-09-03T00:06:49.729Z,50.11
2022-09-03T00:09:25.283Z,50.25
2022-09-03T00:12:10.758Z,50.10
2022-09-03T00:15:01.159Z,50.23
2022-09-03T00:17:35.937Z,50.14
2022-09-03T00:20:15.681Z,50.86
2022-09-03T00:22:47.450Z,50.81
2022-09-03T00:25:21.509Z,50.91
2022-09-03T00:27:55.973Z,50.72
2022-09-03T00:30:24.709Z,50.91
2022-09-03T00:33:18.995Z,50.94
2022-09-03T00:36:03.867Z,51.33
2022-09-03T00:38:31.726Z,50.96
2022-09-03T00:41:07.389Z,51.16
2022-09-03T00:43:40.167Z,51.20
2022-09-03T00:46:22.650Z,50.91
2022-09-03T00:49:11.152Z,51.33
2022-09-03T00:52:04.447Z,51.91
2022-09-03T00:54:35.275Z,51.50
2022-09-03T00:57:25.967Z,51.39
2022-09-03T01:00:09.106Z,51.45
2022-09-03T01:02:49.835Z,51.81
2022-09-03T01:05:31.566Z,51.86
2022-09-03T01:08:26.781Z,51.62
2022-09-03T01:11:11.695Z,51.95
2022-09-03T01:13:44.628Z,52.43
2022-09-03T01:16:11.632Z,52.44
2022-09-03T01:18:43.335Z,52.01
2022-09-03T01:21:35.108Z,51.90
2022-09-03T01:24:53.726Z,51.81
2022-09-03T01:27:46.935Z,52.02
2022-09-03T01:30:18.538Z,52.93
2022-09-03T01:32:57.366Z,52.65
2022-09-03T01:35:53.294Z,52.37
2022-09-03T01:38:31.400Z,52.56
2022-09-03T01:41:21.743Z,52.74
2022-09-03T01:44:17.005Z,52.98
2022-09-03T01:46:47.328Z,53.15
2022-09-03T01:49:29.127Z,53.20
2022-09-03T01:52:06.563Z,53.54
2022-09-03T01:54:51.635Z,52.92
2022-09-03T01:57:35.326Z,52.83
2022-09-03T02:00:13.582Z,53.22
2022-09-03T02:02:48.846Z,53.12
2022-09-03T02:05:23.506Z,53.17
2022-09-03T02:07:57.927Z,53.15
2022-09-03T02:10:45.914Z,53.07
2022-09-03T02:13:19.780Z,53.21
2022-09-03T02:15:50.348Z,52.90
2022-09-03T02:18:21.096Z,53.86
2022-09-03T02:20:50.445Z,53.37
2022-09-03T02:23:17.394Z,53.14
2022-09-03T02:25:55.755Z,53.11
2022-09-03T02:28:23.512Z,53.22
2022-09-03T02:30:50.975Z,53.08
2022-09-03T02:33:18.044Z,54.14
2022-09-03T02:35:45.042Z,53.75
2022-09-03T02:38:26.035Z,53.81
2022-09-03T02:40:54.625Z,53.62
2022-09-03T02:43:39.615Z,54.26
2022-09-03T02:46:13.147Z,54.65
2022-09-03T02:48:40.148Z,54.71
2022-09-03T02:51:13.907Z,54.33
2022-09-03T02:53:42.449Z,54.09
2022-09-03T02:56:09.699Z,54.47
2022-09-03T02:58:36.802Z,54.65
2022-09-03T03:01:03.765Z,54.63
2022-09-03T03:03:30.839Z,54.66
2022-09-03T03:06:01.478Z,54.94
2022-09-03T03:08:30.516Z,55.07
2022-09-03T03:10:58.948Z,55.35
2022-09-03T03:13:27.118Z,54.79
2022-09-03T03:15:59.088Z,54.96
2022-09-03T03:18:26.296Z,55.22
2022-09-03T03:20:53.378Z,54.76
2022-09-03T03:23:20.804Z,55.26
2022-09-03T03:25:47.901Z,55.73
2022-09-03T03:28:15.375Z,55.18
2022-09-03T03:30:43.106Z,55.78
2022-09-03T03:33:10.676Z,55.61
2022-09-03T03:35:37.621Z,55.85
2022-09-03T03:38:05.236Z,55.52
2022-09-03T03:40:32.228Z,55.77
2022-09-03T03:42:59.431Z,56.20
2022-09-03T03:45:26.539Z,55.99
2022-09-03T03:47:58.431Z,55.96
2022-09-03T03:50:25.791Z,55.69
2022-09-03T03:52:52.795Z,55.69
2022-09-03T03:55:19.836Z,56.00
2022-09-03T03:57:47.257Z,55.79
2022-09-03T04:00:15.480Z,56.21
2022-09-03T04:02:42.494Z,56.27
2022-09-03T04:05:10.091Z,56.23
2022-09-03T04:07:38.578Z,55.90
2022-09-03T04:10:06.132Z,56.63
2022-09-03T04:12:33.386Z,56.13
2022-09-03T04:15:00.384Z,56.08
2022-09-03T04:17:28.507Z,56.16
2022-09-03T04:19:55.453Z,56.21
2022-09-03T04:22:22.556Z,56.18
2022-09-03T04:24:49.602Z,56.14
2022-09-03T04:27:16.651Z,56.32
2022-09-03T04:29:43.639Z,56.18
2022-09-03T04:32:29.739Z,56.32
2022-09-03T04:34:57.506Z,56.37
2022-09-03T04:37:24.607Z,56.69
2022-09-03T04:39:51.501Z,56.61
2022-09-03T04:42:18.549Z,56.76
2022-09-03T04:44:45.441Z,56.93
2022-09-03T04:47:12.389Z,56.64
2022-09-03T04:49:40.358Z,56.40
2022-09-03T04:52:07.357Z,56.30
2022-09-03T04:54:34.358Z,56.47
2022-09-03T04:57:01.355Z,57.18
2022-09-03T04:59:28.401Z,56.32
2022-09-03T05:01:56.913Z,56.36
2022-09-03T05:04:24.047Z,56.45
2022-09-03T05:06:51.132Z,56.50
2022-09-03T05:09:18.145Z,56.30
2022-09-03T05:11:45.215Z,56.63
2022-09-03T05:14:12.806Z,56.53
2022-09-03T05:16:39.802Z,56.22
2022-09-03T05:19:08.086Z,56.35
2022-09-03T05:21:36.296Z,56.47
2022-09-03T05:24:04.314Z,57.02
2022-09-03T05:26:34.437Z,57.21
2022-09-03T05:29:07.698Z,56.86
2022-09-03T05:31:38.247Z,57.12
2022-09-03T05:34:06.381Z,57.14
2022-09-03T05:36:36.495Z,56.86
2022-09-03T05:39:05.391Z,56.72
2022-09-03T05:41:34.372Z,57.18
2022-09-03T05:44:01.700Z,56.99
2022-09-03T05:46:34.119Z,57.23
2022-09-03T05:49:02.679Z,56.89
2022-09-03T05:51:30.930Z,57.05
2022-09-03T05:53:58.598Z,57.78
2022-09-03T05:56:27.789Z,56.88
2022-09-03T05:58:59.915Z,56.78
2022-09-03T06:01:29.268Z,56.74
2022-09-03T06:04:04.608Z,56.33
2022-09-03T06:06:34.221Z,55.79
2022-09-03T06:09:04.126Z,54.84
2022-09-03T06:11:33.040Z,54.61
2022-09-03T06:14:06.107Z,54.45
2022-09-03T06:16:35.598Z,54.71
2022-09-03T06:19:06.352Z,55.09
2022-09-03T06:21:33.247Z,54.96
2022-09-03T06:24:00.431Z,55.41
2022-09-03T06:26:29.442Z,55.96
2022-09-03T06:28:57.587Z,55.57
2022-09-03T06:31:25.868Z,55.82
2022-09-03T06:33:54.979Z,55.21
2022-09-03T06:36:24.386Z,56.52
2022-09-03T06:38:56.557Z,55.30
2022-09-03T06:41:26.336Z,54.48
2022-09-03T06:43:59.262Z,53.91
2022-09-03T06:46:26.216Z,54.56
2022-09-03T06:48:53.509Z,55.73
2022-09-03T06:51:26.398Z,53.83
2022-09-03T06:53:56.686Z,54.47
2022-09-03T06:56:27.253Z,53.59
2022-09-03T06:59:04.030Z,54.04
2022-09-03T07:01:33.128Z,53.63
2022-09-03T07:04:05.551Z,54.16
2022-09-03T07:06:37.407Z,53.72
2022-09-03T07:09:08.559Z,53.59
2022-09-03T07:11:36.773Z,53.78
2022-09-03T07:14:05.674Z,53.21
2022-09-03T07:16:37.587Z,53.55
2022-09-03T07:19:09.325Z,52.76
2022-09-03T07:21:37.931Z,52.99
2022-09-03T07:24:06.188Z,53.04
2022-09-03T07:26:36.840Z,52.42
2022-09-03T07:29:04.247Z,52.40
2022-09-03T07:31:34.171Z,51.53
2022-09-03T07:34:10.039Z,52.83
2022-09-03T07:36:48.746Z,51.20
2022-09-03T07:39:16.776Z,51.37
2022-09-03T07:41:46.095Z,51.25
2022-09-03T07:44:16.448Z,51.39
2022-09-03T07:46:45.735Z,50.65
2022-09-03T07:49:13.201Z,49.91
2022-09-03T07:51:40.669Z,49.96
2022-09-03T07:54:11.889Z,49.41
2022-09-03T07:56:40.632Z,47.10
2022-09-03T07:59:08.941Z,48.92
2022-09-03T08:01:37.262Z,49.21
2022-09-03T08:04:09.506Z,47.52
2022-09-03T08:06:39.953Z,48.02
2022-09-03T08:09:13.814Z,47.32
2022-09-03T08:11:43.689Z,47.12
2022-09-03T08:14:13.016Z,47.73
2022-09-03T08:16:42.908Z,46.46
2022-09-03T08:19:13.562Z,46.17
2022-09-03T08:21:44.466Z,46.07
2022-09-03T08:24:12.694Z,47.07
2022-09-03T08:26:46.335Z,45.52
2022-09-03T08:29:17.902Z,45.25
2022-09-03T08:31:45.036Z,45.58
2022-09-03T08:34:13.397Z,43.66
2022-09-03T08:36:41.700Z,43.66
2022-09-03T08:39:10.773Z,44.38
2022-09-03T08:41:47.215Z,43.66
2022-09-03T08:44:17.030Z,43.31
2022-09-03T08:46:56.778Z,44.19
2022-09-03T08:49:43.133Z,42.13
2022-09-03T08:52:37.518Z,42.53
2022-09-03T08:55:20.758Z,41.14
2022-09-03T08:57:51.272Z,42.22
2022-09-03T09:00:19.373Z,43.29
2022-09-03T09:03:15.378Z,43.77
2022-09-03T09:05:52.158Z,41.81
2022-09-03T09:08:37.948Z,42.23
2022-09-03T09:11:32.699Z,40.50
2022-09-03T09:14:04.901Z,42.45
2022-09-03T09:16:40.863Z,41.56
2022-09-03T09:19:24.037Z,42.23
2022-09-03T09:21:59.231Z,41.60
2022-09-03T09:24:33.243Z,41.17
2022-09-03T09:27:03.197Z,41.30
2022-09-03T09:29:35.654Z,41.89
2022-09-03T09:32:04.834Z,41.01
2022-09-03T09:34:39.598Z,41.50
2022-09-03T09:37:11.168Z,39.84
2022-09-03T09:39:38.470Z,39.61
2022-09-03T09:42:11.502Z,38.75
2022-09-03T09:44:41.237Z,39.84
2022-09-03T09:47:16.570Z,38.77
2022-09-03T09:49:47.036Z,39.61
2022-09-03T09:52:16.650Z,38.27
2022-09-03T09:54:48.325Z,38.29
2022-09-03T09:57:18.539Z,37.15
2022-09-03T09:59:46.503Z,39.16
2022-09-03T10:02:28.950Z,36.30
2022-09-03T10:05:02.452Z,39.44
2022-09-03T10:07:33.153Z,39.69
2022-09-03T10:10:21.539Z,38.93
2022-09-03T10:12:51.045Z,37.60
2022-09-03T10:15:27.169Z,36.80
2022-09-03T10:17:57.071Z,35.98
2022-09-03T10:20:52.794Z,37.40
2022-09-03T10:23:25.835Z,38.21
2022-09-03T10:25:53.929Z,35.76
2022-09-03T10:28:25.695Z,37.25
2022-09-03T10:31:20.994Z,35.78
2022-09-03T10:33:57.471Z,35.20
2022-09-03T10:36:42.535Z,34.50
2022-09-03T10:39:17.975Z,35.00
2022-09-03T10:42:33.812Z,37.13
2022-09-03T10:45:18.325Z,35.87
2022-09-03T10:48:13.112Z,34.89
2022-09-03T10:50:52.811Z,35.07
2022-09-03T10:53:31.534Z,35.84
2022-09-03T10:56:09.280Z,35.15
2022-09-03T10:59:18.943Z,36.59
2022-09-03T11:02:21.775Z,37.04
2022-09-03T11:05:13.501Z,35.07
2022-09-03T11:07:46.486Z,33.87
2022-09-03T11:10:25.153Z,34.45
2022-09-03T11:12:58.197Z,35.43
2022-09-03T11:15:36.313Z,36.41
2022-09-03T11:18:15.587Z,35.15
2022-09-03T11:20:44.316Z,32.74
2022-09-03T11:23:15.331Z,35.87
2022-09-03T11:25:47.167Z,33.70
2022-09-03T11:28:23.755Z,34.28
2022-09-03T11:31:17.835Z,34.62
2022-09-03T11:33:54.612Z,33.06
2022-09-03T11:36:34.712Z,35.70
2022-09-03T11:39:13.427Z,35.76
2022-09-03T11:41:40.746Z,34.92
2022-09-03T11:44:20.735Z,35.20
2022-09-03T11:46:59.058Z,33.08
2022-09-03T11:49:33.725Z,33.79
2022-09-03T11:52:04.469Z,32.63
2022-09-03T11:54:44.774Z,33.98
2022-09-03T11:57:28.991Z,33.92
2022-09-03T12:00:13.045Z,34.94
2022-09-03T12:02:52.483Z,34.38
2022-09-03T12:06:20.065Z,33.74
2022-09-03T12:08:56.029Z,33.50
2022-09-03T12:11:30.663Z,33.26
2022-09-03T12:14:20.448Z,33.93
2022-09-03T12:17:24.858Z,33.45
2022-09-03T12:19:57.261Z,32.66
2022-09-03T12:22:29.051Z,33.60
2022-09-03T12:24:56.508Z,34.96
2022-09-03T12:27:26.733Z,34.80
2022-09-03T12:30:06.272Z,32.18
2022-09-03T12:32:39.572Z,34.06
2022-09-03T12:38:11.937Z,32.54
2022-09-03T12:43:39.246Z,31.44
2022-09-03T12:46:14.894Z,32.83
2022-09-03T12:51:49.144Z,32.48
2022-09-03T12:54:18.728Z,32.01
2022-09-03T12:56:54.501Z,32.53
2022-09-03T12:59:22.961Z,33.72
2022-09-03T13:01:55.024Z,31.88
2022-09-03T13:04:27.885Z,32.82
2022-09-03T13:07:03.924Z,33.35
2022-09-03T13:09:34.011Z,34.21
2022-09-03T13:12:05.104Z,32.68
2022-09-03T13:14:47.855Z,33.34
2022-09-03T13:17:36.570Z,32.28
2022-09-03T13:20:29.388Z,31.64
2022-09-03T13:23:24.780Z,34.37
2022-09-03T13:26:06.246Z,32.42
2022-09-03T13:28:48.501Z,30.05
2022-09-03T13:31:43.231Z,34.02
2022-09-03T13:34:18.564Z,34.09
2022-09-03T13:36:49.402Z,32.03
2022-09-03T13:39:47.311Z,34.41
2022-09-03T13:42:27.602Z,30.52
2022-09-03T13:45:26.530Z,34.79
2022-09-03T13:48:38.335Z,35.73
2022-09-03T13:51:53.142Z,34.90
2022-09-03T13:54:49.884Z,34.67
2022-09-03T13:57:40.306Z,32.03
2022-09-03T14:00:11.592Z,34.33
2022-09-03T14:02:53.112Z,32.89
2022-09-03T14:05:25.649Z,33.57
2022-09-03T14:08:09.720Z,34.00
2022-09-03T14:11:23.995Z,35.35
2022-09-03T14:14:38.281Z,35.81
2022-09-03T14:17:18.069Z,34.30
2022-09-03T14:20:32.473Z,35.63
2022-09-03T14:23:21.836Z,34.65
2022-09-03T14:26:03.801Z,36.04
2022-09-03T14:28:47.102Z,33.27
2022-09-03T14:31:25.574Z,36.72
2022-09-03T14:34:10.416Z,35.16
2022-09-03T14:36:54.150Z,36.06
2022-09-03T14:39:34.270Z,35.88
2022-09-03T14:42:32.728Z,35.89
2022-09-03T14:45:17.975Z,37.15
2022-09-03T14:48:22.641Z,36.71
2022-09-03T14:50:55.057Z,34.56
2022-09-03T14:53:59.800Z,36.11
2022-09-03T14:56:50.960Z,34.16
2022-09-03T14:59:45.654Z,36.70
2022-09-03T15:02:24.576Z,37.37
2022-09-03T15:05:12.410Z,37.31
2022-09-03T15:07:42.331Z,37.02
2022-09-03T15:10:30.514Z,37.45
2022-09-03T15:13:09.192Z,38.28
2022-09-03T15:15:42.600Z,35.61
2022-09-03T15:18:37.555Z,36.68
2022-09-03T15:21:24.621Z,37.98
2022-09-03T15:24:03.728Z,36.53
2022-09-03T15:27:01.732Z,35.57
2022-09-03T15:29:47.106Z,38.55
2022-09-03T15:32:33.405Z,38.53
2022-09-03T15:35:08.193Z,38.39
2022-09-03T15:37:49.054Z,37.56
2022-09-03T15:40:21.966Z,39.49
2022-09-03T15:42:55.969Z,39.96
2022-09-03T15:45:40.205Z,38.65
2022-09-03T15:48:29.170Z,39.85
2022-09-03T15:51:10.388Z,39.83
2022-09-03T15:53:46.248Z,38.68
2022-09-03T15:56:19.186Z,40.97
2022-09-03T15:59:24.944Z,40.82
2022-09-03T16:01:58.959Z,41.55
2022-09-03T16:04:47.200Z,40.78
2022-09-03T16:07:27.572Z,40.63
2022-09-03T16:10:26.099Z,39.08
2022-09-03T16:13:25.619Z,39.38
2022-09-03T16:16:10.023Z,41.14
2022-09-03T16:18:59.179Z,41.42
2022-09-03T16:21:55.053Z,40.70
2022-09-03T16:24:42.233Z,40.29
2022-09-03T16:27:26.991Z,40.38
2022-09-03T16:29:59.419Z,41.44
2022-09-03T16:32:58.890Z,42.34
2022-09-03T16:35:36.261Z,42.02
2022-09-03T16:38:35.051Z,41.67
2022-09-03T16:41:22.392Z,42.45
2022-09-03T16:44:21.374Z,42.04
2022-09-03T16:47:14.435Z,42.91
2022-09-03T16:50:04.831Z,42.36
2022-09-03T16:52:39.439Z,42.83
2022-09-03T16:55:31.590Z,43.50
2022-09-03T16:58:27.055Z,43.28
2022-09-03T17:01:34.298Z,44.22
2022-09-03T17:04:36.837Z,43.95
2022-09-03T17:07:06.644Z,44.23
2022-09-03T17:09:47.305Z,44.85
2022-09-03T17:12:35.716Z,44.73
2022-09-03T17:15:35.187Z,44.59
2022-09-03T17:18:35.065Z,45.20
2022-09-03T17:21:18.533Z,44.93
2022-09-03T17:24:03.515Z,45.73
2022-09-03T17:26:44.787Z,45.85
2022-09-03T17:29:45.408Z,45.62
2022-09-03T17:32:41.863Z,45.79
2022-09-03T17:35:38.292Z,46.05
2022-09-03T17:38:59.284Z,46.19
2022-09-03T17:41:33.611Z,46.33
2022-09-03T17:44:34.361Z,46.68
2022-09-03T17:47:36.009Z,46.75
2022-09-03T17:50:12.072Z,47.07
2022-09-03T17:52:45.321Z,47.49
2022-09-03T17:55:12.411Z,47.47
2022-09-03T17:57:47.097Z,47.34
2022-09-03T18:00:31.084Z,47.48
2022-09-03T18:03:17.233Z,47.43
2022-09-03T18:05:49.972Z,47.74
2022-09-03T18:08:33.817Z,47.92
2022-09-03T18:11:14.222Z,47.88
2022-09-03T18:13:53.354Z,48.19
2022-09-03T18:16:20.421Z,48.65
2022-09-03T18:18:51.333Z,48.76
2022-09-03T18:21:41.286Z,48.99
2022-09-03T18:24:51.900Z,48.53
2022-09-03T18:28:04.002Z,49.03
2022-09-03T18:30:52.212Z,49.20
2022-09-03T18:33:43.777Z,49.27
2022-09-03T18:36:31.307Z,49.33
2022-09-03T18:39:45.341Z,49.42
2022-09-03T18:43:04.006Z,49.51
2022-09-03T18:49:45.381Z,50.07
2022-09-03T18:52:40.631Z,50.58
2022-09-03T18:55:47.879Z,50.33
2022-09-03T18:58:55.416Z,50.68
2022-09-03T19:01:57.145Z,50.81
2022-09-03T19:05:11.722Z,50.66
2022-09-03T19:08:31.643Z,50.91
2022-09-03T19:11:25.411Z,50.78
2022-09-03T19:14:11.607Z,51.34
2022-09-03T19:17:14.187Z,51.10
2022-09-03T19:20:27.280Z,51.10
2022-09-03T19:23:12.799Z,51.16
2022-09-03T19:25:58.364Z,51.51
2022-09-03T19:28:46.115Z,51.82
2022-09-03T19:31:47.873Z,51.60
2022-09-03T19:34:54.911Z,52.05
2022-09-03T19:38:07.889Z,52.03
2022-09-03T19:40:56.037Z,52.09
2022-09-03T19:44:05.929Z,52.14
2022-09-03T19:47:10.220Z,52.34
2022-09-03T19:50:16.945Z,52.13
2022-09-03T19:53:11.493Z,53.16
2022-09-03T19:56:07.653Z,52.92
2022-09-03T19:58:57.849Z,53.56
2022-09-03T20:01:48.604Z,53.45
2022-09-03T20:04:34.613Z,53.50
2022-09-03T20:07:24.839Z,53.73
2022-09-03T20:10:12.646Z,54.49
2022-09-03T20:12:51.291Z,54.33
2022-09-03T20:15:23.696Z,54.59
2022-09-03T20:18:07.566Z,54.68
2022-09-03T20:20:56.730Z,54.33
2022-09-03T20:23:36.178Z,54.08
2022-09-03T20:26:18.272Z,54.75
2022-09-03T20:29:17.424Z,54.12
2022-09-03T20:31:48.720Z,55.44
2022-09-03T20:34:44.386Z,55.33
2022-09-03T20:37:15.275Z,55.15
2022-09-03T20:40:15.301Z,55.60
2022-09-03T20:43:09.892Z,54.58
2022-09-03T20:46:08.533Z,56.74
2022-09-03T20:48:50.633Z,53.93
2022-09-03T20:51:23.212Z,54.67
2022-09-03T20:54:06.496Z,55.52
2022-09-03T20:56:46.923Z,55.41
2022-09-03T20:59:36.584Z,54.83
2022-09-03T21:02:38.774Z,55.64
2022-09-03T21:05:16.867Z,55.06
2022-09-03T21:08:12.896Z,55.39
2022-09-03T21:10:54.125Z,55.10
2022-09-03T21:13:39.155Z,56.60
2022-09-03T21:16:34.864Z,56.36
2022-09-03T21:19:09.184Z,56.84
2022-09-03T21:21:46.014Z,55.76
2022-09-03T21:24:31.233Z,56.29
2022-09-03T21:27:15.799Z,56.02
2022-09-03T21:29:58.572Z,57.45
2022-09-03T21:32:39.073Z,56.76
2022-09-03T21:35:38.914Z,55.83
2022-09-03T21:38:09.284Z,57.65
2022-09-03T21:40:43.739Z,58.44
2022-09-03T21:43:26.507Z,56.96
2022-09-03T21:46:09.775Z,57.49
2022-09-03T21:48:48.559Z,57.28
2022-09-03T21:51:22.108Z,58.05
2022-09-03T21:53:58.167Z,58.47
2022-09-03T21:56:31.054Z,57.85
2022-09-03T21:59:08.728Z,57.77
2022-09-03T22:01:56.542Z,58.58
2022-09-03T22:04:26.206Z,58.37
2022-09-03T22:07:08.298Z,58.39
2022-09-03T22:09:50.295Z,58.28
2022-09-03T22:12:24.215Z,58.55
2022-09-03T22:14:53.816Z,58.59
2022-09-03T22:17:20.750Z,58.86
2022-09-03T22:19:47.723Z,59.41
2022-09-03T22:22:35.343Z,58.82
2022-09-03T22:25:08.993Z,59.23
2022-09-03T22:28:07.330Z,59.18
2022-09-03T22:30:55.570Z,59.33
2022-09-03T22:33:33.378Z,59.77
2022-09-03T22:36:11.990Z,59.73
2022-09-03T22:39:07.359Z,60.23
2022-09-03T22:41:57.696Z,60.55
2022-09-03T22:44:48.717Z,60.88
2022-09-03T22:47:38.767Z,59.62
2022-09-03T22:50:26.891Z,60.37
2022-09-03T22:53:18.257Z,60.11
2022-09-03T22:56:06.816Z,60.89
2022-09-03T22:58:50.202Z,61.36
2022-09-03T23:01:18.926Z,61.82
2022-09-03T23:03:54.990Z,61.64
2022-09-03T23:06:39.861Z,60.96
2022-09-03T23:09:14.074Z,61.92
2022-09-03T23:11:46.961Z,62.47
2022-09-03T23:14:28.906Z,61.55
2022-09-03T23:17:07.569Z,61.90
2022-09-03T23:19:44.968Z,62.10
2022-09-03T23:22:29.993Z,61.90
2022-09-03T23:25:09.024Z,62.85
2022-09-03T23:27:55.573Z,62.28
2022-09-03T23:30:22.572Z,63.17
2022-09-03T23:32:57.602Z,63.09
2022-09-03T23:35:28.756Z,62.84
2022-09-03T23:38:34.375Z,63.24
2022-09-03T23:41:07.187Z,63.17
2022-09-03T23:43:37.558Z,63.78
2022-09-03T23:46:31.187Z,63.81
2022-09-03T23:49:13.092Z,63.66
2022-09-03T23:51:40.438Z,63.99
2022-09-03T23:54:25.463Z,63.62
2022-09-03T23:57:05.529Z,64.07
2022-09-03T23:59:43.519Z,63.95
